Time;durP1;ratioP1;P1;durP2;ratioP2;P2;SDS_P1;SDS_P2;PMS_P1;PMS_P2;Temp;Humidity;BMP_temperature;BMP_pressure;BME280_temperature;BME280_humidity;BME280_pressure;Samples;Min_cycle;Max_cycle;Signal;HPM_P1;HPM_P2
2023/04/06 00:01:40;;;;;;;19.80;11.17;;;-1.40;99.90;;;;;;10168598;29;20310;-89
2023/04/06 00:06:43;;;;;;;18.47;11.77;;;-1.60;99.90;;;;;;10151420;29;20231;-89
2023/04/06 00:11:45;;;;;;;20.13;11.97;;;-1.80;99.90;;;;;;10168080;29;20247;-89
2023/04/06 00:16:48;;;;;;;18.53;11.67;;;-1.70;99.90;;;;;;10168814;29;20275;-89
2023/04/06 00:21:50;;;;;;;17.97;11.47;;;-1.80;99.90;;;;;;10167916;29;20266;-89
2023/04/06 00:26:53;;;;;;;14.27;10.00;;;-1.80;99.90;;;;;;10166999;29;20255;-89
2023/04/06 00:31:55;;;;;;;23.00;11.47;;;-1.70;99.90;;;;;;10167552;29;20275;-89
2023/04/06 00:36:58;;;;;;;18.17;12.20;;;-1.80;99.90;;;;;;10168066;29;20235;-89
2023/04/06 00:42:06;;;;;;;20.97;11.93;;;-2.00;99.90;;;;;;10167630;29;20337;-88
2023/04/06 00:47:09;;;;;;;21.23;11.00;;;-1.90;99.90;;;;;;10165161;29;20247;-89
2023/04/06 00:52:12;;;;;;;17.70;10.53;;;-1.70;99.90;;;;;;10166359;29;20728;-89
2023/04/06 00:57:16;;;;;;;18.43;11.00;;;-1.80;99.90;;;;;;10166690;29;20711;-89
2023/04/06 01:02:21;;;;;;;15.07;10.57;;;-1.80;99.90;;;;;;10165982;29;20322;-89
2023/04/06 01:07:26;;;;;;;15.40;10.00;;;-1.90;99.90;;;;;;10165428;29;20259;-89
2023/04/06 01:12:40;;;;;;;18.80;10.50;;;-1.90;99.90;;;;;;10166037;29;20658;-88
2023/04/06 01:17:53;;;;;;;17.10;11.07;;;-1.80;99.90;;;;;;10165694;29;20243;-88
2023/04/06 01:22:55;;;;;;;36.33;13.63;;;-1.90;99.90;;;;;;10167336;29;20317;-89
2023/04/06 01:27:58;;;;;;;22.10;12.20;;;-2.00;99.90;;;;;;10176031;29;20246;-89
2023/04/06 01:33:20;;;;;;;21.40;13.80;;;-2.10;99.90;;;;;;10173554;29;20215;-89
2023/04/06 01:38:38;;;;;;;23.17;12.80;;;-2.00;99.90;;;;;;10173297;29;20243;-89
2023/04/06 01:43:41;;;;;;;18.87;12.93;;;-2.40;99.90;;;;;;10173051;29;20263;-88
2023/04/06 01:48:45;;;;;;;20.90;13.60;;;-2.40;99.90;;;;;;10173115;29;20251;-89
2023/04/06 01:54:10;;;;;;;24.13;13.73;;;-2.30;99.90;;;;;;10171802;29;20239;-88
2023/04/06 01:59:35;;;;;;;22.90;13.50;;;-2.30;99.90;;;;;;10090731;29;20253;-89
2023/04/06 02:04:44;;;;;;;32.60;16.33;;;-2.60;99.90;;;;;;10074681;29;20385;-89
2023/04/06 02:09:49;;;;;;;27.10;15.80;;;-2.60;99.90;;;;;;10074910;29;20296;-88
2023/04/06 02:14:59;;;;;;;27.57;14.93;;;-2.50;99.90;;;;;;10074693;29;20301;-88
2023/04/06 02:20:02;;;;;;;31.47;14.43;;;-2.70;99.90;;;;;;10074094;29;20358;-88
2023/04/06 02:25:05;;;;;;;29.67;16.10;;;-2.70;99.90;;;;;;10074117;29;20240;-88
2023/04/06 02:30:08;;;;;;;26.47;14.50;;;-2.50;99.90;;;;;;10090076;29;20288;-88
2023/04/06 02:35:11;;;;;;;28.50;16.33;;;-2.60;99.90;;;;;;10127459;29;20246;-88
2023/04/06 02:40:15;;;;;;;25.03;16.37;;;-2.50;99.90;;;;;;10170609;29;20263;-88
2023/04/06 02:45:18;;;;;;;28.47;13.33;;;-2.70;99.90;;;;;;10147580;29;20243;-87
2023/04/06 02:50:22;;;;;;;23.20;14.33;;;-2.50;99.90;;;;;;10170760;29;20302;-88
2023/04/06 02:55:32;;;;;;;24.50;14.50;;;-2.50;99.90;;;;;;10169908;29;20930;-88
2023/04/06 03:00:37;;;;;;;29.07;17.03;;;-2.30;99.90;;;;;;10170476;29;20267;-88
2023/04/06 03:05:39;;;;;;;26.33;15.67;;;-2.50;99.90;;;;;;10169730;29;20268;-87
2023/04/06 03:10:42;;;;;;;17.07;11.03;;;-2.70;99.90;;;;;;10170646;29;20243;-88
2023/04/06 03:15:45;;;;;;;19.40;12.03;;;-2.30;99.90;;;;;;10168992;29;20299;-88
2023/04/06 03:20:55;;;;;;;25.17;15.63;;;-2.10;99.90;;;;;;10169098;29;20283;-87
2023/04/06 03:26:04;;;;;;;31.63;15.93;;;-2.00;99.90;;;;;;10167327;29;20243;-88
2023/04/06 03:31:06;;;;;;;28.17;16.87;;;-2.30;99.90;;;;;;10170164;29;20239;-88
2023/04/06 03:36:35;;;;;;;32.07;15.83;;;-2.60;99.90;;;;;;10169101;29;20693;-87
2023/04/06 03:41:39;;;;;;;19.07;13.40;;;-2.70;99.90;;;;;;10168113;29;20342;-87
2023/04/06 03:47:11;;;;;;;24.73;12.83;;;-2.60;99.90;;;;;;10160338;29;20243;-87
2023/04/06 03:52:13;;;;;;;23.67;14.80;;;-2.60;99.90;;;;;;10167986;29;20689;-88
2023/04/06 03:57:16;;;;;;;23.20;14.77;;;-2.70;99.90;;;;;;10168548;29;20247;-87
2023/04/06 04:02:18;;;;;;;26.77;15.43;;;-2.80;99.90;;;;;;10166190;29;20327;-88
2023/04/06 04:07:21;;;;;;;24.10;14.80;;;-2.90;99.90;;;;;;10168383;29;20235;-87
2023/04/06 04:12:25;;;;;;;27.20;15.83;;;-2.90;99.90;;;;;;10166000;29;20298;-87
2023/04/06 04:17:27;;;;;;;27.27;14.73;;;-2.90;99.90;;;;;;10167108;29;20254;-87
2023/04/06 04:22:30;;;;;;;29.00;14.23;;;-2.60;99.90;;;;;;10163079;29;20714;-87
2023/04/06 04:27:33;;;;;;;35.90;17.77;;;-2.40;99.90;;;;;;10128297;29;20212;-88
2023/04/06 04:32:36;;;;;;;45.83;16.77;;;-2.70;99.90;;;;;;10134756;29;20286;-87
2023/04/06 04:37:41;;;;;;;21.40;14.10;;;-2.80;99.90;;;;;;10166448;29;20235;-87
2023/04/06 04:42:46;;;;;;;26.53;15.87;;;-2.70;99.90;;;;;;10166613;29;20259;-88
2023/04/06 04:47:55;;;;;;;35.50;15.53;;;-2.80;99.90;;;;;;10165003;29;20247;-88
2023/04/06 04:53:05;;;;;;;30.57;15.07;;;-2.60;99.90;;;;;;10163091;29;20325;-90
2023/04/06 04:58:10;;;;;;;30.50;16.50;;;-2.50;99.90;;;;;;10162490;29;20247;-87
2023/04/06 05:03:26;;;;;;;24.73;15.70;;;-2.50;99.90;;;;;;10173786;29;20322;-88
2023/04/06 05:08:33;;;;;;;26.07;13.57;;;-2.50;99.90;;;;;;10174570;29;20239;-87
2023/04/06 05:13:37;;;;;;;33.13;16.17;;;-2.30;99.90;;;;;;10172162;29;20325;-86
2023/04/06 05:18:48;;;;;;;33.43;15.83;;;-2.10;99.90;;;;;;10171917;29;20290;-86
2023/04/06 05:23:51;;;;;;;33.50;17.90;;;-1.90;99.90;;;;;;10173538;29;20311;-86
2023/04/06 05:28:54;;;;;;;31.57;16.67;;;-1.70;99.90;;;;;;10174059;29;20674;-87
2023/04/06 05:33:58;;;;;;;40.77;20.90;;;-1.40;99.90;;;;;;10171545;29;20243;-86
2023/04/06 05:39:12;;;;;;;21.83;11.13;;;-1.20;99.90;;;;;;10167747;29;20211;-94
2023/04/06 05:44:20;;;;;;;33.03;21.00;;;-0.20;99.90;;;;;;10183997;29;20256;-95
2023/04/06 05:49:31;;;;;;;28.27;18.37;;;1.30;99.90;;;;;;10197855;29;20236;-95
2023/04/06 05:54:35;;;;;;;37.70;19.63;;;1.60;99.90;;;;;;10189032;29;20273;-94
2023/04/06 05:59:38;;;;;;;28.10;18.40;;;1.80;99.90;;;;;;10181758;29;20257;-95
2023/04/06 06:04:41;;;;;;;33.23;22.47;;;2.20;99.90;;;;;;10177228;29;20253;-94
2023/04/06 06:09:44;;;;;;;48.30;27.67;;;2.80;99.90;;;;;;10175949;29;20269;-94
2023/04/06 06:15:00;;;;;;;72.90;38.33;;;3.00;99.90;;;;;;10174796;29;20240;-93
2023/04/06 06:20:08;;;;;;;69.10;40.53;;;2.50;99.90;;;;;;10174081;29;20213;-93
2023/04/06 06:25:11;;;;;;;32.50;18.73;;;2.70;99.90;;;;;;10173409;29;20224;-93
2023/04/06 06:30:14;;;;;;;27.87;18.17;;;3.00;99.90;;;;;;10173578;29;20765;-94
2023/04/06 06:35:18;;;;;;;45.97;23.20;;;3.20;99.80;;;;;;10176677;29;20208;-92
2023/04/06 06:40:23;;;;;;;48.97;27.27;;;3.30;99.90;;;;;;10170523;29;20728;-92
2023/04/06 06:45:29;;;;;;;41.73;25.07;;;3.50;98.20;;;;;;10170389;29;20268;-92
2023/04/06 06:50:31;;;;;;;38.07;21.03;;;3.50;99.50;;;;;;10170392;29;20723;-91
2023/04/06 06:55:34;;;;;;;47.00;26.90;;;3.50;98.20;;;;;;10169887;29;20245;-92
2023/04/06 07:00:37;;;;;;;34.00;17.47;;;3.90;98.30;;;;;;10169822;29;20318;-92
2023/04/06 07:05:49;;;;;;;28.70;14.73;;;4.20;98.90;;;;;;10170364;29;20316;-92
2023/04/06 07:10:55;;;;;;;22.83;13.10;;;4.40;96.80;;;;;;10169956;29;20244;-91
2023/04/06 07:15:59;;;;;;;27.17;17.00;;;4.60;96.40;;;;;;10169354;29;20350;-91
2023/04/06 07:21:03;;;;;;;22.83;16.20;;;4.90;96.00;;;;;;10169373;29;20334;-90
2023/04/06 07:26:05;;;;;;;24.67;13.77;;;5.40;92.10;;;;;;10168606;29;20285;-92
2023/04/06 07:31:08;;;;;;;21.30;12.53;;;5.70;92.60;;;;;;10168238;29;20697;-90
2023/04/06 07:36:11;;;;;;;12.87;8.37;;;5.50;87.10;;;;;;10170112;29;20306;-90
2023/04/06 07:41:14;;;;;;;17.07;9.90;;;5.80;81.20;;;;;;10169343;29;20254;-90
2023/04/06 07:46:17;;;;;;;14.37;10.10;;;6.10;75.20;;;;;;10166943;29;20265;-91
2023/04/06 07:51:21;;;;;;;14.27;8.40;;;6.30;68.40;;;;;;10168435;29;20650;-91
2023/04/06 07:56:23;;;;;;;14.60;9.63;;;6.30;62.50;;;;;;10168508;29;20241;-93
2023/04/06 08:01:28;;;;;;;15.67;10.90;;;6.80;70.30;;;;;;10164297;29;20285;-92
2023/04/06 08:06:30;;;;;;;14.73;9.67;;;7.00;71.40;;;;;;10182125;29;20261;-92
2023/04/06 08:11:33;;;;;;;13.13;7.80;;;6.90;51.40;;;;;;10175528;29;20282;-92
2023/04/06 08:16:35;;;;;;;13.60;9.67;;;6.90;58.10;;;;;;10173768;29;20657;-93
2023/04/06 08:21:39;;;;;;;12.40;9.63;;;7.10;54.20;;;;;;10183585;29;20639;-93
2023/04/06 08:26:42;;;;;;;12.40;7.90;;;7.50;58.80;;;;;;10177332;29;20237;-94
2023/04/06 08:31:44;;;;;;;11.93;8.27;;;7.30;41.20;;;;;;10172705;29;20204;-93
2023/04/06 08:36:47;;;;;;;12.43;8.47;;;7.60;47.80;;;;;;10173292;29;20201;-93
2023/04/06 08:41:51;;;;;;;12.90;8.40;;;7.50;45.30;;;;;;10181153;29;20224;-92
2023/04/06 08:46:54;;;;;;;15.53;8.97;;;7.60;42.30;;;;;;10194829;29;20210;-91
2023/04/06 08:51:59;;;;;;;12.83;7.80;;;7.60;40.30;;;;;;10172748;29;20222;-92
2023/04/06 08:57:04;;;;;;;10.33;8.27;;;7.60;39.50;;;;;;10186892;29;20262;-94
2023/04/06 09:02:15;;;;;;;10.00;7.77;;;7.50;33.30;;;;;;10206359;29;20262;-93
2023/04/06 09:07:18;;;;;;;16.03;9.53;;;7.60;37.70;;;;;;10179563;29;20193;-92
2023/04/06 09:12:27;;;;;;;12.50;8.70;;;8.40;47.80;;;;;;10186512;29;20202;-93
2023/04/06 09:17:33;;;;;;;15.43;9.53;;;8.90;51.10;;;;;;10201214;29;20209;-93
2023/04/06 09:22:40;;;;;;;11.57;8.57;;;9.00;43.60;;;;;;10178874;29;20221;-93
2023/04/06 09:27:44;;;;;;;8.20;5.87;;;9.30;47.30;;;;;;10174495;29;20623;-92
2023/04/06 09:32:50;;;;;;;7.17;6.13;;;9.10;33.30;;;;;;10191530;29;20222;-94
2023/04/06 09:37:54;;;;;;;8.10;6.17;;;9.10;29.10;;;;;;10175730;29;20263;-93
2023/04/06 09:42:58;;;;;;;8.67;6.90;;;8.80;26.40;;;;;;10173382;29;20234;-93
2023/04/06 09:48:02;;;;;;;10.30;6.77;;;8.40;28.10;;;;;;10178172;29;20246;-93
2023/04/06 09:53:06;;;;;;;11.80;8.40;;;8.30;27.30;;;;;;10176386;29;20639;-92
2023/04/06 09:58:19;;;;;;;8.77;6.40;;;8.30;31.60;;;;;;10175377;29;20295;-92
2023/04/06 10:03:52;;;;;;;9.00;6.43;;;8.50;29.80;;;;;;10176882;29;20219;-91
2023/04/06 10:08:57;;;;;;;9.37;6.73;;;9.20;42.90;;;;;;10196982;29;20257;-92
2023/04/06 10:14:00;;;;;;;13.00;9.00;;;9.10;30.60;;;;;;10215258;29;20659;-94
2023/04/06 10:19:11;;;;;;;10.33;7.73;;;9.20;29.50;;;;;;10186669;29;20241;-94
2023/04/06 10:24:14;;;;;;;11.70;7.43;;;9.60;42.80;;;;;;10178494;29;20289;-96
2023/04/06 10:29:16;;;;;;;11.23;7.40;;;9.50;30.80;;;;;;10179020;29;20604;-94
2023/04/06 10:34:19;;;;;;;10.07;6.90;;;8.70;26.30;;;;;;10179624;29;20620;-94
2023/04/06 10:39:25;;;;;;;10.10;6.87;;;8.50;28.60;;;;;;10177873;29;20222;-93
2023/04/06 10:44:28;;;;;;;12.23;6.93;;;8.80;28.30;;;;;;10163310;29;20223;-93
2023/04/06 10:49:30;;;;;;;9.53;6.53;;;8.60;25.70;;;;;;10177426;29;20265;-92
2023/04/06 10:54:34;;;;;;;8.80;6.73;;;8.20;29.10;;;;;;10177777;29;20568;-93
2023/04/06 10:59:36;;;;;;;12.00;7.17;;;8.50;29.60;;;;;;10175997;29;20740;-90
2023/04/06 11:04:39;;;;;;;12.13;7.20;;;8.70;29.00;;;;;;10179294;29;20234;-93
2023/04/06 11:09:42;;;;;;;8.80;6.93;;;9.00;29.40;;;;;;10178399;29;20242;-94
2023/04/06 11:15:04;;;;;;;9.70;6.30;;;9.00;25.10;;;;;;10178324;29;20293;-95
2023/04/06 11:20:11;;;;;;;9.07;7.80;;;9.20;30.30;;;;;;10181217;29;20237;-95
2023/04/06 11:25:13;;;;;;;9.73;6.13;;;8.70;24.30;;;;;;10178457;29;20248;-93
2023/04/06 11:30:17;;;;;;;8.27;7.47;;;8.90;44.20;;;;;;10173447;29;20632;-92
2023/04/06 11:35:21;;;;;;;11.30;7.87;;;9.20;25.80;;;;;;10185271;29;20268;-94
2023/04/06 11:40:27;;;;;;;10.67;8.23;;;8.90;27.70;;;;;;10208936;29;20622;-93
2023/04/06 11:45:41;;;;;;;8.87;7.47;;;8.70;30.00;;;;;;10174535;29;20233;-93
2023/04/06 11:50:47;;;;;;;10.33;6.80;;;8.80;28.10;;;;;;10172560;29;20237;-93
2023/04/06 11:55:49;;;;;;;14.23;7.33;;;9.00;27.90;;;;;;10172697;29;20214;-92
2023/04/06 12:00:52;;;;;;;7.63;6.83;;;8.60;26.40;;;;;;10183115;29;20213;-92
2023/04/06 12:05:55;;;;;;;12.70;8.43;;;8.60;26.70;;;;;;10211144;29;20335;-93
2023/04/06 12:10:59;;;;;;;12.00;7.60;;;9.10;31.50;;;;;;10212705;29;20299;-94
2023/04/06 12:16:02;;;;;;;9.70;7.50;;;9.10;28.40;;;;;;10179517;29;20294;-94
2023/04/06 12:21:05;;;;;;;23.10;9.03;;;9.10;26.50;;;;;;10172158;29;20216;-93
2023/04/06 12:26:07;;;;;;;10.60;7.13;;;8.90;28.20;;;;;;10173043;29;20250;-93
2023/04/06 12:31:18;;;;;;;8.60;7.70;;;9.20;29.10;;;;;;10173118;29;20274;-94
2023/04/06 12:36:21;;;;;;;15.37;8.13;;;9.30;28.60;;;;;;10173115;29;20257;-94
2023/04/06 12:41:24;;;;;;;10.37;7.57;;;9.40;34.20;;;;;;10171167;29;20619;-92
2023/04/06 12:46:30;;;;;;;8.77;6.90;;;9.20;27.50;;;;;;10169003;29;20241;-90
2023/04/06 12:51:33;;;;;;;11.33;7.60;;;9.00;27.90;;;;;;10166242;29;20221;-89
2023/04/06 12:56:36;;;;;;;8.87;7.03;;;9.40;27.40;;;;;;10168448;29;20231;-85
2023/04/06 13:01:38;;;;;;;13.87;8.10;;;9.40;27.10;;;;;;10163773;29;20236;-86
2023/04/06 13:06:41;;;;;;;21.33;6.47;;;9.10;23.10;;;;;;10167605;29;20234;-86
2023/04/06 13:11:43;;;;;;;11.10;7.83;;;9.40;30.60;;;;;;10175382;29;20239;-86
2023/04/06 13:16:46;;;;;;;9.67;7.33;;;9.20;25.70;;;;;;10164436;29;20691;-86
2023/04/06 13:21:49;;;;;;;9.63;7.83;;;9.20;24.20;;;;;;10172435;29;20257;-88
2023/04/06 13:26:51;;;;;;;11.00;8.47;;;9.30;26.30;;;;;;10173243;29;20230;-88
2023/04/06 13:31:54;;;;;;;16.90;7.00;;;9.20;23.40;;;;;;10174186;29;20278;-87
2023/04/06 13:36:56;;;;;;;13.20;6.03;;;9.30;25.50;;;;;;10174029;29;20241;-87
2023/04/06 13:41:59;;;;;;;8.37;7.03;;;9.40;26.00;;;;;;10171981;29;20314;-87
2023/04/06 13:47:06;;;;;;;9.57;7.57;;;9.40;24.00;;;;;;10172607;29;20224;-87
2023/04/06 13:52:12;;;;;;;8.90;7.70;;;9.20;22.70;;;;;;10173303;29;20250;-87
2023/04/06 13:57:14;;;;;;;4.90;4.20;;;9.30;22.00;;;;;;10177568;29;20242;-86
2023/04/06 14:02:18;;;;;;;10.37;7.27;;;9.20;24.70;;;;;;10173231;29;20396;-87
2023/04/06 14:07:21;;;;;;;15.37;9.63;;;9.40;27.60;;;;;;10173837;29;20242;-87
2023/04/06 14:12:26;;;;;;;12.43;6.00;;;9.10;24.70;;;;;;10171540;29;20289;-86
2023/04/06 14:17:29;;;;;;;7.80;6.47;;;8.90;28.60;;;;;;10168925;29;20247;-87
2023/04/06 14:22:31;;;;;;;16.40;7.20;;;9.30;26.00;;;;;;10167750;29;20277;-86
2023/04/06 14:27:34;;;;;;;20.50;17.03;;;9.30;23.40;;;;;;10171173;29;20283;-87
2023/04/06 14:32:37;;;;;;;7.83;4.47;;;8.70;25.30;;;;;;10170651;29;20751;-87
2023/04/06 14:37:40;;;;;;;12.83;9.50;;;8.70;34.80;;;;;;10172041;29;20306;-84
2023/04/06 14:42:42;;;;;;;15.37;9.07;;;8.90;28.40;;;;;;10171235;29;20258;-86
2023/04/06 14:47:45;;;;;;;11.67;9.13;;;9.10;25.60;;;;;;10159985;29;20298;-84
2023/04/06 14:52:47;;;;;;;8.87;5.77;;;9.00;23.90;;;;;;10170298;29;20242;-84
2023/04/06 14:57:49;;;;;;;11.67;9.47;;;8.90;26.20;;;;;;10165619;29;20242;-84
2023/04/06 15:02:52;;;;;;;10.20;7.93;;;8.80;24.00;;;;;;10168971;29;20672;-84
2023/04/06 15:07:54;;;;;;;13.07;9.00;;;9.10;31.30;;;;;;10168828;29;20691;-84
2023/04/06 15:12:57;;;;;;;14.27;8.60;;;9.60;34.10;;;;;;10165943;29;20275;-85
2023/04/06 15:18:02;;;;;;;13.27;7.20;;;9.70;27.90;;;;;;10169284;29;20251;-84
2023/04/06 15:23:05;;;;;;;14.23;10.03;;;9.30;26.80;;;;;;10167691;29;20255;-86
2023/04/06 15:28:07;;;;;;;11.20;9.67;;;8.80;25.20;;;;;;10167728;29;20238;-85
2023/04/06 15:33:10;;;;;;;18.73;7.73;;;8.70;24.60;;;;;;10163919;29;20247;-85
2023/04/06 15:38:12;;;;;;;12.23;9.70;;;8.90;29.10;;;;;;10168044;29;20242;-84
2023/04/06 15:43:15;;;;;;;10.10;7.67;;;8.90;25.30;;;;;;10167124;29;20955;-85
2023/04/06 15:48:18;;;;;;;8.53;5.20;;;8.70;25.90;;;;;;10166135;29;20250;-85
2023/04/06 15:53:20;;;;;;;8.53;6.97;;;8.50;28.90;;;;;;10160975;29;20301;-85
2023/04/06 15:58:23;;;;;;;17.50;10.80;;;8.60;25.70;;;;;;10167075;29;20250;-86
2023/04/06 16:03:26;;;;;;;9.53;7.90;;;8.40;27.40;;;;;;10166564;29;20661;-86
2023/04/06 16:08:29;;;;;;;11.03;7.57;;;8.10;26.00;;;;;;10165887;29;20226;-85
2023/04/06 16:13:32;;;;;;;9.57;6.90;;;7.80;27.60;;;;;;10166591;29;20274;-86
2023/04/06 16:18:34;;;;;;;7.13;6.00;;;7.90;27.70;;;;;;10155431;29;20246;-93
2023/04/06 16:23:38;;;;;;;8.90;6.93;;;7.80;32.40;;;;;;10144864;29;20318;-93
2023/04/06 16:28:41;;;;;;;9.07;6.80;;;7.90;28.50;;;;;;10168237;29;20780;-91
2023/04/06 16:33:43;;;;;;;9.40;8.07;;;8.00;28.90;;;;;;10162674;29;20299;-92
2023/04/06 16:38:46;;;;;;;8.53;6.93;;;7.80;27.30;;;;;;10162122;29;20627;-91
2023/04/06 16:43:49;;;;;;;7.80;7.03;;;7.70;27.40;;;;;;10163069;29;20303;-91
2023/04/06 16:48:53;;;;;;;9.87;7.13;;;7.60;27.60;;;;;;10165741;29;20233;-92
2023/04/06 16:53:55;;;;;;;10.33;6.50;;;7.50;28.70;;;;;;10166795;29;20294;-94
2023/04/06 16:58:58;;;;;;;10.57;7.37;;;7.30;27.40;;;;;;10168268;29;20234;-91
2023/04/06 17:04:00;;;;;;;7.73;6.90;;;7.10;27.40;;;;;;10167559;29;20703;-92
2023/04/06 17:09:03;;;;;;;9.43;6.80;;;6.90;28.50;;;;;;9825323;29;10000455;-92
2023/04/06 17:14:07;;;;;;;12.70;8.40;;;6.80;29.30;;;;;;10164811;29;20302;-93
2023/04/06 17:19:10;;;;;;;10.87;7.60;;;6.50;30.80;;;;;;10166409;29;20247;-93
2023/04/06 17:24:12;;;;;;;14.60;9.13;;;6.50;31.40;;;;;;10165621;29;20263;-92
2023/04/06 17:29:15;;;;;;;18.17;8.73;;;6.40;32.10;;;;;;10166372;29;20602;-92
2023/04/06 17:34:18;;;;;;;17.57;8.70;;;6.10;32.60;;;;;;10170401;29;20222;-92
2023/04/06 17:39:20;;;;;;;19.50;6.40;;;6.00;33.70;;;;;;10163556;29;20235;-85
2023/04/06 17:44:23;;;;;;;8.00;5.30;;;6.30;48.60;;;;;;10154155;29;20395;-87
2023/04/06 17:49:25;;;;;;;9.87;5.20;;;6.90;46.80;;;;;;10165246;29;20275;-88
2023/04/06 17:54:28;;;;;;;10.60;6.87;;;6.90;43.20;;;;;;10164729;29;20329;-88
2023/04/06 17:59:30;;;;;;;10.03;7.87;;;6.90;42.00;;;;;;10167394;29;20238;-88
2023/04/06 18:04:33;;;;;;;7.90;6.07;;;6.60;41.50;;;;;;10167689;29;20690;-88
2023/04/06 18:09:36;;;;;;;18.33;7.83;;;6.50;43.00;;;;;;10174078;29;20312;-88
2023/04/06 18:14:40;;;;;;;19.93;10.73;;;6.50;43.70;;;;;;10173559;29;20282;-88
2023/04/06 18:19:42;;;;;;;30.50;15.33;;;6.30;44.40;;;;;;10170131;29;20703;-88
2023/04/06 18:24:45;;;;;;;51.83;23.27;;;6.00;45.40;;;;;;10172091;29;20795;-88
2023/04/06 18:29:47;;;;;;;20.00;10.20;;;5.90;51.20;;;;;;10171464;29;20230;-88
2023/04/06 18:34:50;;;;;;;22.63;11.43;;;6.00;54.30;;;;;;10167598;29;20226;-88
2023/04/06 18:39:53;;;;;;;31.30;14.87;;;6.30;58.20;;;;;;10172857;29;20603;-88
2023/04/06 18:44:56;;;;;;;35.90;20.03;;;6.40;55.80;;;;;;10170240;29;20329;-87
2023/04/06 18:49:58;;;;;;;63.30;26.57;;;6.40;54.60;;;;;;10165100;29;20756;-87
2023/04/06 18:55:01;;;;;;;54.17;23.73;;;6.50;53.00;;;;;;10170137;29;20282;-86
2023/04/06 19:00:04;;;;;;;33.00;15.27;;;6.50;53.40;;;;;;10171993;29;20268;-86
2023/04/06 19:05:07;;;;;;;22.40;15.63;;;6.60;55.60;;;;;;10171251;29;20261;-87
2023/04/06 19:10:09;;;;;;;29.07;17.47;;;6.70;53.20;;;;;;10171253;29;20680;-87
2023/04/06 19:15:12;;;;;;;53.70;28.63;;;6.70;51.80;;;;;;10164467;29;20302;-86
2023/04/06 19:20:15;;;;;;;25.20;15.90;;;6.80;49.00;;;;;;10168218;29;20653;-87
2023/04/06 19:25:17;;;;;;;28.63;15.43;;;6.70;48.80;;;;;;10168370;29;21011;-87
2023/04/06 19:30:20;;;;;;;19.23;12.03;;;6.60;51.30;;;;;;10169822;29;20254;-87
2023/04/06 19:35:23;;;;;;;17.87;11.03;;;6.60;50.40;;;;;;10170953;29;20242;-87
2023/04/06 19:40:25;;;;;;;15.60;10.13;;;6.50;49.60;;;;;;10166642;29;20242;-87
2023/04/06 19:45:28;;;;;;;13.93;9.10;;;6.50;50.40;;;;;;10167538;29;20260;-89
2023/04/06 19:50:31;;;;;;;16.10;8.47;;;6.50;51.70;;;;;;10170674;29;20231;-88
2023/04/06 19:55:36;;;;;;;17.03;9.60;;;6.30;53.50;;;;;;10170512;29;20284;-88
2023/04/06 20:00:38;;;;;;;14.53;10.73;;;6.10;55.50;;;;;;10165666;29;20267;-88
2023/04/06 20:05:41;;;;;;;27.10;12.50;;;6.30;59.70;;;;;;10156445;29;20634;-88
2023/04/06 20:10:43;;;;;;;20.17;12.40;;;6.30;61.40;;;;;;10164418;29;20258;-88
2023/04/06 20:15:46;;;;;;;18.25;11.60;;;6.30;63.00;;;;;;9825192;29;10001106;-88
2023/04/06 20:20:49;;;;;;;17.37;11.40;;;6.50;63.80;;;;;;10154960;29;20300;-86
2023/04/06 20:25:51;;;;;;;16.53;10.63;;;6.60;67.80;;;;;;10166026;29;20266;-86
2023/04/06 20:30:54;;;;;;;8.27;5.77;;;7.00;71.20;;;;;;10163891;29;20232;-90
2023/04/06 20:36:00;;;;;;;9.33;6.27;;;7.70;89.40;;;;;;10165679;29;20250;-87
2023/04/06 20:41:03;;;;;;;9.23;5.17;;;7.80;84.00;;;;;;10162713;29;20264;-87
2023/04/06 20:46:06;;;;;;;11.10;7.60;;;8.30;81.90;;;;;;10162984;29;20680;-85
2023/04/06 20:51:21;;;;;;;19.77;11.83;;;8.10;76.60;;;;;;10163251;29;20287;-85
2023/04/06 20:56:25;;;;;;;20.20;9.87;;;8.20;74.30;;;;;;10167152;29;20802;-85
2023/04/06 21:01:28;;;;;;;10.87;6.00;;;7.40;74.70;;;;;;10163907;29;20247;-87
2023/04/06 21:06:31;;;;;;;11.40;6.87;;;7.20;83.50;;;;;;10150615;29;20318;-87
2023/04/06 21:11:34;;;;;;;14.07;8.40;;;7.10;83.20;;;;;;10166006;29;20232;-86
2023/04/06 21:16:38;;;;;;;13.07;8.87;;;7.10;81.70;;;;;;10164710;29;20267;-85
2023/04/06 21:21:40;;;;;;;11.10;7.77;;;6.70;82.20;;;;;;10166472;29;20741;-86
2023/04/06 21:26:43;;;;;;;12.83;8.00;;;6.50;84.40;;;;;;10165786;29;20254;-86
2023/04/06 21:31:45;;;;;;;7.83;5.70;;;6.60;84.80;;;;;;10165160;29;20230;-85
2023/04/06 21:36:48;;;;;;;11.80;7.53;;;6.40;86.50;;;;;;10166091;29;20682;-86
2023/04/06 21:41:50;;;;;;;10.10;6.87;;;6.20;86.90;;;;;;10171751;29;20694;-87
2023/04/06 21:46:53;;;;;;;9.00;6.80;;;6.10;87.60;;;;;;10173551;29;20262;-87
2023/04/06 21:51:55;;;;;;;8.80;6.00;;;6.30;88.40;;;;;;10173870;29;20234;-86
2023/04/06 21:56:58;;;;;;;9.67;6.07;;;6.60;85.60;;;;;;10172601;29;20291;-85
2023/04/06 22:02:00;;;;;;;11.37;7.13;;;6.80;91.00;;;;;;10171403;29;20271;-86
2023/04/06 22:07:03;;;;;;;8.53;7.33;;;6.60;87.50;;;;;;10172227;29;20287;-86
2023/04/06 22:12:06;;;;;;;6.87;5.27;;;6.40;87.80;;;;;;10172104;29;20359;-86
2023/04/06 22:17:08;;;;;;;8.40;6.87;;;6.50;87.10;;;;;;10174990;29;20267;-85
2023/04/06 22:22:11;;;;;;;7.60;4.63;;;6.40;79.30;;;;;;10171170;29;20238;-85
2023/04/06 22:27:13;;;;;;;7.10;4.83;;;6.00;77.20;;;;;;10173441;29;20762;-85
2023/04/06 22:32:16;;;;;;;7.40;5.20;;;5.80;77.50;;;;;;10149798;29;20302;-85
2023/04/06 22:37:19;;;;;;;6.10;4.77;;;5.80;78.20;;;;;;10157422;29;20258;-86
2023/04/06 22:42:23;;;;;;;8.27;4.60;;;5.80;80.20;;;;;;10171866;29;20237;-85
2023/04/06 22:47:25;;;;;;;12.57;5.27;;;5.60;80.80;;;;;;10171910;29;20278;-85
2023/04/06 22:52:28;;;;;;;8.90;4.97;;;5.40;85.00;;;;;;10168575;29;20687;-85
2023/04/06 22:57:30;;;;;;;8.37;5.40;;;5.20;90.60;;;;;;10170124;29;20313;-84
2023/04/06 23:02:33;;;;;;;15.27;5.00;;;5.10;92.20;;;;;;10168961;29;20243;-86
2023/04/06 23:07:36;;;;;;;8.30;4.93;;;5.00;93.90;;;;;;10168836;29;20262;-86
2023/04/06 23:12:38;;;;;;;9.47;5.13;;;4.80;94.80;;;;;;10169689;29;20305;-87
2023/04/06 23:17:41;;;;;;;8.17;5.00;;;4.90;95.70;;;;;;10170924;29;20287;-87
2023/04/06 23:22:44;;;;;;;5.97;4.47;;;4.80;96.90;;;;;;10169264;29;20251;-87
2023/04/06 23:27:46;;;;;;;6.40;4.37;;;4.80;98.00;;;;;;10169811;29;20289;-87
2023/04/06 23:32:49;;;;;;;8.43;4.33;;;4.70;99.00;;;;;;10169863;29;20939;-87
2023/04/06 23:37:51;;;;;;;7.20;5.00;;;4.60;99.90;;;;;;10171082;29;20245;-87
2023/04/06 23:42:54;;;;;;;8.00;5.17;;;4.60;99.90;;;;;;10170458;29;20311;-87
2023/04/06 23:47:57;;;;;;;6.43;5.20;;;4.50;99.90;;;;;;10169268;29;20273;-87
2023/04/06 23:52:59;;;;;;;8.87;5.37;;;4.60;99.90;;;;;;10167606;29;20244;-87
2023/04/06 23:58:02;;;;;;;11.67;5.27;;;4.50;99.90;;;;;;10169594;29;20230;-87
